• Join FlightAware (Why Join?)
  • Login
  • US Flag 
 
04:05PM EST


 

Airport Tracker/Info


-or-


 

Live Flight TrackerFlight Track Log ✈ EJM76 ✈ 08-Oct-2013 ✈ KCAK - KONT

Flight Track Log - Related Links

Times and Time Zones

All times are in EDT time to prevent confusion due to time zone crossing. See the EJM76 flight status page for this flight to view local times or setup timezone preferences in your user account.

Time Position Orientation Groundspeed Altitude Reporting Facility
EDT Latitude Longitude Course Direction KTS MPH feet Rate Location/Type
11:10AM 40.9481 -81.4447 276° West 179 206 2,500  Level Indianapolis Center
11:11AM 40.9542 -81.5247 276° West 229 264 4,100 1,500 Climbing Indianapolis Center
11:12AM 40.9208 -81.6206 245° Southwest 248 285 5,800 1,860 Climbing Cleveland Center
11:13AM 40.8572 -81.6758 213° Southwest 268 308 8,100 1,920 Climbing Cleveland Center
11:14AM 40.8106 -81.7575 233° Southwest 286 329 9,800 1,560 Climbing Cleveland Center
11:15AM 40.8183 -81.8606 276° West 280 322 11,400 1,200 Climbing Cleveland Center
11:16AM 40.8272 -81.9728 276° West 300 345 12,300 1,560 Climbing Cleveland Center
11:17AM 40.8347 -82.0856 275° West 305 351 14,700 1,860 Climbing Cleveland Center
11:18AM 40.8433 -82.2003 276° West 304 350 16,100 660 Climbing Indianapolis Center
11:19AM 40.8511 -82.3233 275° West 326 375 16,100 540 Level Indianapolis Center
11:20AM 40.8597 -82.4486 275° West 336 387 17,300 1,200 Climbing Indianapolis Center
11:21AM 40.8669 -82.5722 274° West 334 384 18,600 1,440 Climbing Indianapolis Center
11:22AM 40.8225 -82.7136 247° West 358 412 20,300 1,560 Climbing Indianapolis Center
11:24AM 40.7744 -82.8322 242° Southwest 363 418 21,900 1,500 Climbing Indianapolis Center
11:25AM 40.7269 -82.9533 243° Southwest 367 422 23,500 1,440 Climbing Indianapolis Center
11:26AM 40.6786 -83.0750 242° Southwest 371 427 24,900 1,260 Climbing Indianapolis Center
11:27AM 40.6392 -83.1942 246° West 376 433 26,100 1,020 Climbing Indianapolis Center
11:28AM 40.6069 -83.3258 252° West 380 437 27,100 1,440 Climbing Indianapolis Center
11:29AM 40.5683 -83.4867 253° West 385 443 29,100 1,440 Climbing Indianapolis Center
11:30AM 40.5350 -83.6181 252° West 382 440 30,100 960 Climbing Indianapolis Center
11:31AM 40.5025 -83.7500 252° West 381 438 31,200 1,020 Climbing Indianapolis Center
11:32AM 40.4697 -83.8828 252° West 385 443 32,200 960 Climbing Indianapolis Center
11:33AM 40.4369 -84.0144 252° West 383 441 33,200 960 Climbing Indianapolis Center
11:34AM 40.4028 -84.1442 251° West 379 436 34,200 900 Climbing Indianapolis Center
11:35AM 40.3636 -84.3014 252° West 380 437 35,100 780 Climbing Indianapolis Center
11:36AM 40.3308 -84.4325 252° West 379 436 35,800 420 Climbing Indianapolis Center
11:37AM 40.2967 -84.5647 251° West 385 443 36,000 60 Climbing Indianapolis Center
11:38AM 40.2608 -84.7022 251° West 398 458 36,000  Level Indianapolis Center
11:39AM 40.2231 -84.8456 251° West 415 478 36,000  Level Indianapolis Center
11:40AM 40.1833 -84.9978 251° West 420 483 36,000  Level Indianapolis Center
11:41AM 40.1464 -85.1414 251° West 419 482 36,000  Level Indianapolis Center
11:42AM 40.1081 -85.2856 251° West 421 484 36,000  Level Indianapolis Center
11:43AM 40.0697 -85.4589 254° West 415 478 36,000  Level Indianapolis Center
11:44AM 40.0469 -85.6078 259° West 419 482 36,000  Level Indianapolis Center
11:45AM 40.0233 -85.7547 258° West 418 481 36,000  Level Indianapolis Center
11:46AM 39.9997 -85.9025 258° West 419 482 36,000  Level Indianapolis Center
11:47AM 39.9775 -86.0442 258° West 418 481 36,000  Level Indianapolis Center
11:48AM 39.9528 -86.1969 258° West 421 484 36,000  Level Indianapolis Center
11:49AM 39.9247 -86.3728 258° West 422 486 36,000  Level Indianapolis Center
11:50AM 39.9000 -86.5200 258° West 423 487 36,000  Level Indianapolis Center
11:51AM 39.8747 -86.6664 257° West 421 484 36,000  Level Indianapolis Center
11:52AM 39.8503 -86.8131 258° West 421 484 36,000  Level Indianapolis Center
11:53AM 39.8244 -86.9619 257° West 424 488 36,000  Level Indianapolis Center
11:54AM 39.7944 -87.1386 258° West 420 483 36,000  Level Indianapolis Center
11:57AM 39.7356 -87.4781 257° West 422 486 36,000  Level Kansas City Center
11:57AM 39.7178 -87.5825 258° West 423 487 36,000  Level Indianapolis Center
11:59AM 39.6914 -87.7308 257° West 424 488 36,000  Level Indianapolis Center
12:00PM 39.6650 -87.8794 257° West 424 488 36,000  Level Indianapolis Center
12:01PM 39.6328 -88.0583 257° West 425 489 36,000  Level Indianapolis Center
12:02PM 39.6061 -88.2067 257° West 425 489 36,000  Level Indianapolis Center
12:03PM 39.5808 -88.3417 256° West 425 489 36,000 180 Level Indianapolis Center
12:04PM 39.5472 -88.5206 256° West 426 490 36,400 420 Climbing Indianapolis Center
12:05PM 39.5214 -88.6775 258° West 420 483 37,100 480 Climbing Kansas City Center
12:06PM 39.4964 -88.8517 260° West 413 475 37,600 360 Climbing Kansas City Center
12:07PM 39.4764 -88.9969 260° West 410 472 37,900 180 Climbing Kansas City Center
12:08PM 39.4539 -89.1436 259° West 413 475 38,000  Climbing Kansas City Center
12:09PM 39.4289 -89.3083 259° West 416 479 38,000  Level Kansas City Center
12:10PM 39.4083 -89.4550 260° West 416 479 38,000  Level Kansas City Center
12:11PM 39.3861 -89.6003 259° West 415 478 38,000  Level Kansas City Center
12:12PM 39.3639 -89.7464 259° West 415 478 38,000  Level Kansas City Center
12:13PM 39.3411 -89.8919 259° West 417 480 38,000  Level Kansas City Center
12:14PM 39.3194 -90.0381 259° West 416 479 38,000  Level Kansas City Center
12:15PM 39.2919 -90.2142 259° West 419 482 38,000  Level Kansas City Center
12:16PM 39.2694 -90.3594 259° West 417 480 38,000  Level Kansas City Center
12:17PM 39.2464 -90.5053 259° West 418 481 38,000  Level Kansas City Center
12:18PM 39.2231 -90.6497 258° West 417 480 38,000  Level Kansas City Center
12:19PM 39.2006 -90.7914 258° West 410 472 38,000  Level Kansas City Center
12:20PM 39.1719 -90.9639 258° West 412 474 38,000  Level Kansas City Center
12:22PM 39.1489 -91.1081 258° West 413 475 38,000  Level Kansas City Center
12:23PM 39.1244 -91.2525 258° West 415 478 38,000  Level Kansas City Center
12:24PM 39.1014 -91.3981 259° West 416 479 38,000  Level Kansas City Center
12:25PM 39.0753 -91.5436 257° West 418 481 38,000  Level Kansas City Center
12:26PM 39.0469 -91.7119 258° West 420 483 38,000  Level Kansas City Center
12:27PM 39.0211 -91.8583 257° West 419 482 38,000  Level Kansas City Center
12:28PM 38.9956 -92.0042 257° West 419 482 38,000  Level Kansas City Center
12:29PM 38.9697 -92.1531 257° West 423 487 38,000  Level Kansas City Center
12:30PM 38.9378 -92.3289 257° West 422 486 38,000  Level Kansas City Center
12:31PM 38.9117 -92.4750 257° West 422 486 38,000  Level Kansas City Center
12:32PM 38.8850 -92.6203 257° West 421 484 38,000  Level Kansas City Center
12:33PM 38.8586 -92.7658 257° West 420 483 38,000  Level Kansas City Center
12:34PM 38.8322 -92.9119 257° West 421 484 38,000  Level Kansas City Center
12:35PM 38.8058 -93.0581 257° West 421 484 38,000  Level Kansas City Center
12:36PM 38.7728 -93.2331 256° West 422 486 38,000  Level Kansas City Center
12:37PM 38.7447 -93.3786 256° West 421 484 38,000  Level Kansas City Center
12:38PM 38.7194 -93.5231 257° West 419 482 38,000  Level Kansas City Center
12:39PM 38.6919 -93.6683 256° West 419 482 38,000  Level Kansas City Center
12:40PM 38.6628 -93.8192 256° West 424 488 38,000  Level Kansas City Center
12:41PM 38.6303 -93.9828 256° West 423 487 38,000  Level Kansas City Center
12:42PM 38.6044 -94.1222 257° West 422 486 38,000  Level Kansas City Center
12:43PM 38.5722 -94.2858 256° West 419 482 38,000  Level Kansas City Center
12:44PM 38.5450 -94.4214 256° West 418 481 38,000  Level Kansas City Center
12:45PM 38.5175 -94.5606 256° West 420 483 38,000  Level Kansas City Center
12:46PM 38.4856 -94.7225 256° West 420 483 38,000  Level Kansas City Center
12:47PM 38.4572 -94.8617 255° West 422 486 38,000  Level Kansas City Center
12:48PM 38.4239 -95.0253 255° West 424 488 38,000  Level Kansas City Center
12:49PM 38.3956 -95.1631 255° West 421 484 38,000  Level Kansas City Center
12:50PM 38.3622 -95.3242 255° West 419 482 38,000  Level Kansas City Center
12:51PM 38.3342 -95.4653 256° West 423 487 38,000  Level Kansas City Center
12:53PM 38.3000 -95.6267 255° West 423 487 38,000  Level Kansas City Center
12:54PM 38.2711 -95.7647 255° West 421 484 38,000  Level Kansas City Center
12:55PM 38.2428 -95.9014 255° West 418 481 38,000  Level Kansas City Center
12:56PM 38.2072 -96.0631 254° West 422 486 38,000  Level Kansas City Center
12:57PM 38.1742 -96.2183 255° West 422 486 38,000  Level Kansas City Center
12:58PM 38.1439 -96.3622 255° West 422 486 38,000  Level Kansas City Center
12:59PM 38.1125 -96.5058 255° West 423 487 38,000  Level Kansas City Center
01:00PM 38.0814 -96.6500 255° West 423 487 38,000  Level Kansas City Center
01:01PM 38.0497 -96.7936 254° West 423 487 38,000  Level Kansas City Center
01:02PM 38.0183 -96.9361 254° West 421 484 38,000  Level Kansas City Center
01:03PM 37.9856 -97.0811 254° West 426 490 38,000  Level Kansas City Center
01:04PM 37.9472 -97.2544 254° West 425 489 38,000  Level Kansas City Center
01:05PM 37.9144 -97.3975 254° West 424 488 38,000  Level Kansas City Center
01:06PM 37.8836 -97.5344 254° West 419 482 38,000  Level Kansas City Center
01:07PM 37.8500 -97.6772 253° West 420 483 38,000  Level Kansas City Center
01:08PM 37.8200 -97.8253 256° West 434 499 38,000  Level Kansas City Center
01:09PM 37.7819 -97.9964 254° West 430 495 38,000  Level Kansas City Center
01:10PM 37.7450 -98.1444 253° West 431 496 38,000  Level Kansas City Center
01:11PM 37.7147 -98.2694 253° West 427 491 38,000  Level Kansas City Center
01:12PM 37.6822 -98.4106 254° West 421 484 38,000  Level Kansas City Center
01:13PM 37.6433 -98.5800 254° West 418 481 38,000  Level Kansas City Center
01:14PM 37.6097 -98.7219 253° West 420 483 38,000  Level Kansas City Center
01:15PM 37.5767 -98.8631 254° West 420 483 38,000  Level Kansas City Center
01:16PM 37.5414 -99.0022 252° West 418 481 38,000  Level Kansas City Center
01:17PM 37.5078 -99.1414 253° West 417 480 38,000  Level Kansas City Center
01:18PM 37.4703 -99.2775 251° West 414 476 38,000  Level Kansas City Center
01:19PM 37.4289 -99.4431 253° West 414 476 38,000  Level Kansas City Center
01:20PM 37.4000 -99.5861 256° West 406 467 38,000  Level Kansas City Center
01:21PM 37.3678 -99.7183 253° West 409 471 38,000  Level Kansas City Center
01:23PM 37.3458 -99.8764 260° West 411 473 38,000  Level Kansas City Center
01:24PM 37.3258 -100.0114 259° West 411 473 38,000  Level Kansas City Center
01:25PM 37.3053 -100.1444 259° West 408 470 38,000  Level Kansas City Center
01:26PM 37.2817 -100.2994 259° West 405 466 38,000  Level Kansas City Center
01:27PM 37.2614 -100.4325 259° West 405 466 38,000  Level Kansas City Center
01:28PM 37.2372 -100.5886 259° West 405 466 38,000 240 Level Kansas City Center
01:29PM 37.2164 -100.7228 259° West 407 468 38,600 840 Climbing Kansas City Center
01:30PM 37.1925 -100.8733 259° West 398 458 39,800 660 Climbing Kansas City Center
01:31PM 37.1722 -100.9969 258° West 385 443 40,000 60 Climbing Kansas City Center
01:32PM 37.1494 -101.1461 259° West 386 444 40,000  Level Kansas City Center
01:33PM 37.1286 -101.2753 259° West 390 449 40,000  Level Kansas City Center
01:34PM 37.1072 -101.4053 258° West 395 455 40,000  Level Kansas City Center
01:35PM 37.0833 -101.5561 259° West 395 455 40,000  Level Kansas City Center
01:36PM 37.0625 -101.6861 259° West 396 456 40,000  Level Kansas City Center
01:37PM 37.0378 -101.8350 258° West 393 452 40,000  Level Kansas City Center
01:38PM 37.0156 -101.9617 258° West 392 451 40,000  Level Kansas City Center
01:39PM 36.9908 -102.1119 258° West 393 452 40,000  Level Kansas City Center
01:40PM 36.9697 -102.2408 258° West 394 453 40,000  Level Kansas City Center
01:41PM 36.9433 -102.3897 258° West 394 453 40,000  Level Kansas City Center
01:42PM 36.9222 -102.5161 258° West 391 450 40,000  Level Kansas City Center
01:43PM 36.8961 -102.6653 258° West 393 452 40,000  Level Kansas City Center
01:44PM 36.8747 -102.7928 258° West 392 451 40,000  Level Kansas City Center
01:45PM 36.8442 -102.9728 258° West 390 449 40,000  Level Albuquerque Center
01:47PM 36.8203 -103.1000 257° West 391 450 40,000  Level Albuquerque Center
01:48PM 36.7975 -103.2267 257° West 390 449 40,000  Level Albuquerque Center
01:49PM 36.7714 -103.3761 258° West 393 452 40,000  Level Albuquerque Center
01:50PM 36.7478 -103.5053 257° West 397 457 40,000  Level Albuquerque Center
01:51PM 36.7214 -103.6558 258° West 397 457 40,000  Level Albuquerque Center
01:52PM 36.6978 -103.7858 257° West 398 458 40,000  Level Albuquerque Center
01:53PM 36.6703 -103.9353 257° West 398 458 40,000  Level Albuquerque Center
01:54PM 36.6464 -104.0597 257° West 394 453 40,000  Level Albuquerque Center
01:55PM 36.6219 -104.1931 257° West 392 451 40,000  Level Albuquerque Center
01:56PM 36.5967 -104.3244 257° West 390 449 40,000  Level Albuquerque Center
01:57PM 36.5667 -104.4800 257° West 393 452 40,000  Level Albuquerque Center
01:58PM 36.5414 -104.6119 257° West 391 450 40,000  Level Albuquerque Center
01:59PM 36.5158 -104.7447 257° West 394 453 40,000  Level Albuquerque Center
02:00PM 36.4900 -104.8792 257° West 396 456 40,000  Level Albuquerque Center
02:01PM 36.4675 -105.0122 258° West 393 452 40,000  Level Albuquerque Center
02:02PM 36.4464 -105.1450 259° West 392 451 40,000  Level Albuquerque Center
02:03PM 36.4181 -105.3008 257° West 394 453 40,000  Level Albuquerque Center
02:04PM 36.3956 -105.4347 258° West 395 455 40,000  Level Albuquerque Center
02:05PM 36.3758 -105.5514 258° West 389 448 40,000  Level Albuquerque Center
02:06PM 36.3531 -105.6833 258° West 391 450 40,000  Level Albuquerque Center
02:07PM 36.3258 -105.8394 258° West 389 448 40,000  Level Albuquerque Center
02:08PM 36.3031 -105.9708 258° West 390 449 40,000  Level Albuquerque Center
02:09PM 36.2800 -106.1014 258° West 391 450 40,000  Level Albuquerque Center
02:10PM 36.2567 -106.2339 258° West 393 452 40,000  Level Albuquerque Center
02:11PM 36.2325 -106.3664 257° West 395 455 40,000  Level Albuquerque Center
02:12PM 36.2092 -106.4975 258° West 394 453 40,000  Level Albuquerque Center
02:13PM 36.1822 -106.6447 257° West 395 455 40,000  Level Albuquerque Center
02:14PM 36.1558 -106.7928 258° West 395 455 40,000  Level Albuquerque Center
02:15PM 36.1317 -106.9200 257° West 396 456 40,000  Level Albuquerque Center
02:16PM 36.1058 -107.0692 258° West 397 457 40,000  Level Albuquerque Center
02:17PM 36.0817 -107.1958 257° West 397 457 40,000  Level Albuquerque Center
02:19PM 36.0569 -107.3219 256° West 396 456 40,000  Level Albuquerque Center
02:20PM 36.0300 -107.4700 257° West 395 455 40,000  Level Albuquerque Center
02:21PM 36.0058 -107.5950 257° West 392 451 40,000  Level Albuquerque Center
02:22PM 35.9775 -107.7428 257° West 395 455 40,000  Level Albuquerque Center
02:23PM 35.9536 -107.8689 257° West 394 453 40,000  Level Albuquerque Center
02:24PM 35.9247 -108.0147 256° West 393 452 40,000  Level Albuquerque Center
02:25PM 35.8997 -108.1403 256° West 393 452 40,000  Level Albuquerque Center
02:26PM 35.8753 -108.2667 257° West 394 453 40,000  Level Albuquerque Center
02:27PM 35.8464 -108.4142 256° West 395 455 40,000  Level Albuquerque Center
02:28PM 35.8211 -108.5397 256° West 394 453 40,000  Level Albuquerque Center
02:29PM 35.7908 -108.6872 256° West 395 455 40,000  Level Albuquerque Center
02:30PM 35.7644 -108.8131 256° West 393 452 40,000  Level Albuquerque Center
02:31PM 35.7397 -108.9386 256° West 392 451 40,000  Level Albuquerque Center
02:32PM 35.7100 -109.0844 256° West 391 450 40,000  Level Albuquerque Center
02:33PM 35.6842 -109.2078 256° West 389 448 40,000  Level Albuquerque Center
02:34PM 35.6539 -109.3519 256° West 388 447 40,000  Level Albuquerque Center
02:35PM 35.6286 -109.4772 256° West 392 451 40,000  Level Albuquerque Center
02:36PM 35.5975 -109.6211 255° West 391 450 40,000  Level Albuquerque Center
02:37PM 35.5711 -109.7439 255° West 388 447 40,000  Level Albuquerque Center
02:38PM 35.5442 -109.8664 255° West 387 445 40,000  Level Albuquerque Center
02:39PM 35.5128 -110.0114 255° West 392 451 40,000  Level Albuquerque Center
02:40PM 35.4869 -110.1350 256° West 391 450 40,000  Level Albuquerque Center
02:41PM 35.4542 -110.2767 254° West 388 447 40,000  Level Albuquerque Center
02:42PM 35.4278 -110.4006 255° West 389 448 40,000  Level Albuquerque Center
02:43PM 35.3961 -110.5433 255° West 390 449 40,000  Level Albuquerque Center
02:44PM 35.3694 -110.6653 255° West 389 448 40,000  Level Albuquerque Center
02:45PM 35.3439 -110.7889 256° West 389 448 40,000  Level Albuquerque Center
02:46PM 35.3125 -110.9314 255° West 389 448 40,000  Level Albuquerque Center
02:47PM 35.2853 -111.0531 255° West 388 447 40,000  Level Albuquerque Center
02:48PM 35.2586 -111.1817 256° West 391 450 40,000  Level Albuquerque Center
02:49PM 35.2306 -111.3042 254° West 382 440 40,000  Level Albuquerque Center
02:50PM 35.1975 -111.4525 255° West 379 436 40,000  Level Albuquerque Center
02:51PM 35.1678 -111.5767 254° West 381 438 40,000  Level Albuquerque Center
02:52PM 35.1381 -111.7039 254° West 387 445 40,000  Level Albuquerque Center
02:54PM 35.1081 -111.8361 255° West 390 449 40,000  Level Albuquerque Center
02:55PM 35.0775 -111.9617 253° West 389 448 40,000  Level Albuquerque Center
02:56PM 35.0483 -112.0883 254° West 389 448 40,000  Level Albuquerque Center
02:57PM 35.0189 -112.2133 254° West 386 444 40,000  Level Albuquerque Center
02:58PM 34.9881 -112.3403 254° West 389 448 40,000  Level Albuquerque Center
02:59PM 34.9519 -112.4911 254° West 388 447 40,000  Level Albuquerque Center
03:00PM 34.9217 -112.6158 254° West 386 444 40,000  Level Albuquerque Center
03:01PM 34.8908 -112.7417 253° West 386 444 40,000 -540 Level Albuquerque Center
03:02PM 34.8486 -112.8575 246° West 379 436 39,000 -1,020 Descending Albuquerque Center
03:03PM 34.8050 -112.9750 246° West 378 435 38,000 -540 Descending Albuquerque Center
03:04PM 34.7622 -113.0925 246° West 379 436 38,000  Level Albuquerque Center
03:05PM 34.7100 -113.2361 246° West 385 443 38,000  Level Albuquerque Center
03:06PM 34.6664 -113.3547 246° West 386 444 38,000  Level Albuquerque Center
03:07PM 34.6219 -113.4725 245° Southwest 386 444 38,000  Level Albuquerque Center
03:08PM 34.5781 -113.5928 246° West 389 448 38,000  Level Albuquerque Center
03:09PM 34.5425 -113.7350 253° West 387 445 38,000  Level Albuquerque Center
03:10PM 34.5158 -113.8639 256° West 391 450 38,000  Level Albuquerque Center
03:11PM 34.4861 -113.9903 254° West 391 450 38,000  Level Albuquerque Center
03:12PM 34.4564 -114.1164 254° West 390 449 38,000  Level Albuquerque Center
03:13PM 34.4364 -114.2014 254° West 389 448 38,000 -60 Level Los Angeles Center
03:14PM 34.4047 -114.3261 253° West 389 448 37,900 -540 Descending Los Angeles Center
03:15PM 34.3692 -114.4803 254° West 397 457 36,900 -1,140 Descending Los Angeles Center
03:16PM 34.3375 -114.6056 253° West 393 452 35,600 -1,260 Descending Los Angeles Center
03:17PM 34.3069 -114.7275 253° West 383 441 34,300 -1,260 Descending Los Angeles Center
03:18PM 34.2761 -114.8506 253° West 382 440 33,000 -1,260 Descending Los Angeles Center
03:19PM 34.2447 -114.9761 253° West 389 448 31,700 -1,260 Descending Los Angeles Center
03:20PM 34.2139 -115.1017 253° West 390 449 30,400 -1,260 Descending Los Angeles Center
03:21PM 34.1758 -115.2506 253° West 388 447 29,100 -1,080 Descending Los Angeles Center
03:22PM 34.1425 -115.3792 253° West 399 459 28,200 -840 Descending Los Angeles Center
03:23PM 34.1103 -115.5111 254° West 408 470 27,400 -780 Descending Los Angeles Center
03:24PM 34.0767 -115.6394 252° West 404 465 26,600 -900 Descending Los Angeles Center
03:25PM 34.0442 -115.7636 253° West 394 453 25,600 -780 Descending Los Angeles Center
03:26PM 34.0122 -115.8878 253° West 391 450 25,100 -720 Descending Los Angeles Center
03:27PM 33.9739 -116.0350 253° West 386 444 24,200 -780 Descending Los Angeles Center
03:28PM 33.9419 -116.1572 253° West 386 444 23,500 -1,080 Descending Los Angeles Center
03:29PM 33.9264 -116.2803 261° West 380 437 22,000 -1,500 Descending Los Angeles Center
03:30PM 33.9181 -116.4022 265° West 373 429 20,500 -1,560 Descending Los Angeles Center
03:31PM 33.9106 -116.5217 266° West 365 420 18,800 -2,040 Descending Los Angeles Center
03:32PM 33.9019 -116.6611 266° West 351 404 16,400 -1,980 Descending Los Angeles Center
03:33PM 33.8933 -116.7756 265° West 347 399 14,800 -1,620 Descending Los Angeles Center
03:35PM 33.8981 -116.8847 273° West 338 389 13,100 -1,800 Descending Los Angeles Center
03:36PM 33.9294 -116.9794 292° West 310 357 11,200 -1,860 Descending Los Angeles Center
03:37PM 33.9569 -117.0636 292° West 279 321 9,300 -1,980 Descending Los Angeles Center
03:38PM 33.9833 -117.1667 287° West 262 302 7,100 -1,620 Descending Southern California TRACON
03:39PM 34.0167 -117.2333 301° West 257 296 6,000 -1,200 Descending Southern California TRACON
03:40PM 34.0333 -117.3167 284° West 251 289 4,800 -900 Descending Southern California TRACON
03:41PM 34.0500 -117.4000 284° West 222 255 4,200 -900 Descending Southern California TRACON
03:42PM 34.0500 -117.4500 270° West 178 205 3,000 -1,080 Descending Southern California TRACON
03:43PM 34.0500 -117.5167 270° West 161 185 2,100 -840 Descending Southern California TRACON
03:44PM 34.0500 -117.5667 270° West 128 147 1,400 -720 Descending Southern California TRACON
03:46PM 34.0500 -117.6000 292° West  Level FlightAware Approximate
03:53PM 34.0560 -117.6012 292° West  Level Estimated
03:54PM 34.0500 -117.6000 292° West  Level FlightAware Approximate